This is the latest recevied weather packets stored in our database for station/object KC5CAM-13. If no packets are shown the sender has not sent any weather packets the latest 10 day(s).
| Time | Temp. | Humidity | Pressure | Rain* | Wind** | Luminosity | Snow |
|---|---|---|---|---|---|---|---|
| 1777917971 | 25° C | 60% | 1011.3 hPa | 0 mm | - | 616 W/m² | - |
| 1777917669 | 25° C | 63% | 1011.5 hPa | 0 mm | - | 708 W/m² | - |
| 1777917366 | 25° C | 62% | 1011.6 hPa | 0 mm | - | 655 W/m² | - |
| 1777917062 | 25° C | 63% | 1011.3 hPa | 0 mm | - | 619 W/m² | - |
| 1777916760 | 24.44° C | 62% | 1011.5 hPa | 0 mm | - | 661 W/m² | - |
| 1777916457 | 25° C | 61% | 1011.4 hPa | 0 mm | - | 667 W/m² | - |
| 1777916154 | 25.56° C | 59% | 1011.3 hPa | 0 mm | - | 677 W/m² | - |
| 1777915852 | 25° C | 63% | 1011.6 hPa | 0 mm | - | 673 W/m² | - |
| 1777915548 | 24.44° C | 62% | 1011.6 hPa | 0 mm | - | 678 W/m² | - |
| 1777915244 | 24.44° C | 60% | 1011.7 hPa | 0 mm | - | 724 W/m² | - |
| 1777914941 | 23.89° C | 63% | 1011.7 hPa | 0 mm | - | 701 W/m² | - |
| 1777914638 | 23.89° C | 61% | 1011.9 hPa | 0 mm | - | 652 W/m² | - |
| 1777914333 | 23.89° C | 62% | 1011.8 hPa | 0 mm | - | 535 W/m² | - |
| 1777914032 | 23.89° C | 61% | 1012 hPa | 0 mm | - | 595 W/m² | - |
| 1777913727 | 23.89° C | 61% | 1012 hPa | 0 mm | - | 699 W/m² | - |
| 1777913425 | 23.89° C | 61% | 1012.3 hPa | 0 mm | - | 699 W/m² | - |
| 1777913121 | 23.33° C | 64% | 1012.3 hPa | 0 mm | - | 714 W/m² | - |
| 1777912818 | 23.33° C | 62% | 1012.6 hPa | 0 mm | - | 697 W/m² | - |
| 1777912514 | 23.33° C | 61% | 1012.7 hPa | 0 mm | - | 517 W/m² | - |
| 1777912211 | 23.33° C | 62% | 1012.9 hPa | 0 mm | - | 666 W/m² | - |
| 1777911907 | 23.33° C | 62% | 1012.9 hPa | 0 mm | - | 666 W/m² | - |
| 1777911603 | 23.33° C | 62% | 1012.9 hPa | 0 mm | - | 626 W/m² | - |
| 1777911299 | 22.78° C | 64% | 1012.6 hPa | 0 mm | - | 636 W/m² | - |
| 1777910996 | 22.78° C | 62% | 1012.7 hPa | 0 mm | - | 658 W/m² | - |
| 1777910695 | 22.78° C | 63% | 1012.8 hPa | 0 mm | - | 649 W/m² | - |
* Rain latest hour (hover to see other rain measurements)
** Current wind speed in m/s (hover to see current wind gust speed)